Time;durP1;ratioP1;P1;durP2;ratioP2;P2;SDS_P1;SDS_P2;PMS_P1;PMS_P2;Temp;Humidity;BMP_temperature;BMP_pressure;BME280_temperature;BME280_humidity;BME280_pressure;Samples;Min_cycle;Max_cycle;Signal;HPM_P1;HPM_P2
2024/01/11 00:01:35;;;;;;;1.50;1.37;;;;;;;0.55;100.00;99803.16;5104047;28;20040;-68
2024/01/11 00:04:02;;;;;;;1.40;1.13;;;;;;;0.66;100.00;99825.91;5106166;28;20142;-71
2024/01/11 00:06:27;;;;;;;1.40;1.30;;;;;;;0.69;100.00;99823.88;5096425;28;20134;-70
2024/01/11 00:08:53;;;;;;;2.80;1.30;;;;;;;0.65;100.00;99819.84;5101912;27;20384;-69
2024/01/11 00:11:19;;;;;;;1.70;1.60;;;;;;;0.73;100.00;99834.94;5103612;27;20039;-68
2024/01/11 00:13:44;;;;;;;1.93;1.40;;;;;;;0.81;100.00;99840.41;5103245;27;20070;-70
2024/01/11 00:16:10;;;;;;;1.60;1.50;;;;;;;0.88;100.00;99862.56;5102535;28;20047;-69
2024/01/11 00:18:35;;;;;;;2.07;1.20;;;;;;;0.73;100.00;99834.94;5099527;28;20421;-68
2024/01/11 00:21:01;;;;;;;1.43;1.30;;;;;;;0.68;100.00;99840.56;5108789;28;20028;-68
2024/01/11 00:23:27;;;;;;;2.40;1.20;;;;;;;0.52;100.00;99816.50;5103240;28;20482;-69
2024/01/11 00:25:53;;;;;;;1.60;1.50;;;;;;;0.73;100.00;99854.13;5100640;27;20040;-71
2024/01/11 00:28:18;;;;;;;1.70;1.60;;;;;;;0.58;100.00;99827.34;5103121;28;20031;-69
2024/01/11 00:30:43;;;;;;;1.60;1.50;;;;;;;0.70;100.00;99843.88;5100946;28;20028;-72
2024/01/11 00:33:09;;;;;;;1.50;1.40;;;;;;;0.61;100.00;99836.75;5102793;27;20068;-68
2024/01/11 00:35:35;;;;;;;1.70;1.53;;;;;;;0.67;100.00;99838.88;5103454;28;20039;-68
2024/01/11 00:38:00;;;;;;;1.50;1.40;;;;;;;0.72;100.00;99847.22;5105508;28;20035;-72
2024/01/11 00:40:26;;;;;;;3.00;1.40;;;;;;;0.71;100.00;99845.53;5105250;28;20097;-69
2024/01/11 00:42:51;;;;;;;3.67;1.70;;;;;;;0.75;100.00;99846.97;5100183;28;20048;-70
2024/01/11 00:45:18;;;;;;;1.60;1.50;;;;;;;0.78;100.00;99857.19;5109789;28;20089;-69
2024/01/11 00:47:43;;;;;;;3.70;1.60;;;;;;;0.81;100.00;99867.44;5109693;28;20036;-69
2024/01/11 00:50:09;;;;;;;3.13;1.50;;;;;;;0.80;100.00;99854.47;5102510;28;20408;-72
2024/01/11 00:52:35;;;;;;;1.60;1.50;;;;;;;0.65;100.00;99840.81;5098847;27;20453;-69
2024/01/11 00:55:00;;;;;;;1.83;1.47;;;;;;;0.74;100.00;99850.53;5098610;28;20351;-69
2024/01/11 00:57:26;;;;;;;1.63;1.30;;;;;;;0.66;100.00;99842.47;5099260;27;20081;-68
2024/01/11 00:59:51;;;;;;;1.40;1.30;;;;;;;0.58;100.00;99837.00;5107154;27;20213;-68
2024/01/11 01:02:19;;;;;;;1.50;1.40;;;;;;;0.56;100.00;99823.16;5102702;28;20059;-71
2024/01/11 01:04:46;;;;;;;3.43;1.30;;;;;;;0.77;100.00;99871.25;5101722;28;20386;-69
2024/01/11 01:07:11;;;;;;;3.37;1.30;;;;;;;0.68;100.00;99851.03;5109103;28;20416;-70
2024/01/11 01:09:37;;;;;;;1.27;1.17;;;;;;;0.79;100.00;99861.50;5108153;28;20364;-70
2024/01/11 01:12:03;;;;;;;1.47;1.30;;;;;;;0.81;100.00;99870.06;5098010;28;20039;-71
2024/01/11 01:14:28;;;;;;;1.50;1.20;;;;;;;0.80;100.00;99876.25;5104153;28;20044;-70
2024/01/11 01:16:54;;;;;;;2.60;1.30;;;;;;;0.82;100.00;99881.38;5101320;28;20040;-68
2024/01/11 01:19:19;;;;;;;1.60;1.50;;;;;;;0.72;100.00;99881.28;5106075;28;20131;-69
2024/01/11 01:21:45;;;;;;;1.30;1.20;;;;;;;0.69;100.00;99868.44;5099675;28;20487;-69
2024/01/11 01:24:10;;;;;;;1.23;1.13;;;;;;;0.42;100.00;99833.91;5103829;28;20089;-69
2024/01/11 01:26:36;;;;;;;1.40;1.30;;;;;;;0.74;100.00;99902.13;5103206;28;20414;-69
2024/01/11 01:29:01;;;;;;;1.47;1.37;;;;;;;0.73;100.00;99893.44;5100971;28;20122;-68
2024/01/11 01:31:27;;;;;;;1.30;1.20;;;;;;;0.51;100.00;99875.09;5103418;28;20063;-68
2024/01/11 01:33:52;;;;;;;1.30;1.20;;;;;;;0.40;100.00;99862.84;5101906;28;20451;-68
2024/01/11 01:36:18;;;;;;;1.30;1.20;;;;;;;0.36;100.00;99860.59;5105627;28;20058;-70
2024/01/11 01:38:43;;;;;;;1.63;1.23;;;;;;;0.49;100.00;99885.69;5084421;28;20128;-71
2024/01/11 01:41:09;;;;;;;1.83;1.10;;;;;;;0.45;100.00;99875.59;5096620;28;20462;-69
2024/01/11 01:43:35;;;;;;;1.20;1.10;;;;;;;0.55;100.00;99895.69;5103292;28;20031;-69
2024/01/11 01:46:00;;;;;;;1.13;1.03;;;;;;;0.47;100.00;99892.00;5102757;28;20119;-68
2024/01/11 01:48:27;;;;;;;1.23;1.13;;;;;;;0.29;100.00;99862.88;5097793;28;20399;-68
2024/01/11 01:50:52;;;;;;;1.20;1.10;;;;;;;0.37;100.00;99868.34;5101046;28;20472;-68
2024/01/11 01:53:21;;;;;;;1.30;1.20;;;;;;;0.53;100.00;99909.88;5101885;28;20300;-69
2024/01/11 01:55:48;;;;;;;1.58;1.48;;;;;;;0.49;100.00;99935.47;5103344;28;20035;-69
2024/01/11 01:58:15;;;;;;;1.33;1.23;;;;;;;0.34;100.00;99967.28;5099663;28;20131;-69
2024/01/11 02:00:41;;;;;;;1.10;1.00;;;;;;;-0.20;100.00;99952.97;5101551;28;20285;-69
2024/01/11 02:03:10;;;;;;;1.20;1.10;;;;;;;-0.57;100.00;99954.84;5101420;28;20305;-69
2024/01/11 02:05:36;;;;;;;1.17;1.10;;;;;;;-0.57;100.00;99981.00;5098614;28;20289;-68
2024/01/11 02:08:08;;;;;;;1.20;1.10;;;;;;;-0.77;100.00;99951.03;5104378;28;20123;-68
2024/01/11 02:10:35;;;;;;;1.43;1.33;;;;;;;-0.75;100.00;99958.78;5094316;28;20293;-68
2024/01/11 02:13:01;;;;;;;1.30;1.20;;;;;;;-0.70;100.00;99977.56;5099985;28;20304;-67
2024/01/11 02:15:26;;;;;;;1.20;1.10;;;;;;;-0.63;100.00;100002.34;5100500;28;21078;-68
2024/01/11 02:17:52;;;;;;;1.00;1.00;;;;;;;-0.66;100.00;100000.78;5096183;28;20051;-72
2024/01/11 02:20:18;;;;;;;1.10;1.10;;;;;;;-0.68;100.00;100009.69;5099371;28;20126;-67
2024/01/11 02:22:50;;;;;;;1.60;1.03;;;;;;;-0.71;100.00;100015.13;5100835;28;20756;-69
2024/01/11 02:25:16;;;;;;;1.20;1.17;;;;;;;-0.69;100.00;100034.16;5103298;28;20577;-69
2024/01/11 02:27:48;;;;;;;1.00;1.00;;;;;;;-1.01;100.00;99982.38;5102277;28;20722;-68
2024/01/11 02:30:15;;;;;;;1.30;1.20;;;;;;;-0.76;100.00;100035.53;5109464;28;20273;-69
2024/01/11 02:32:43;;;;;;;1.97;1.20;;;;;;;-0.69;100.00;100039.38;5097249;28;20309;-67
2024/01/11 02:35:08;;;;;;;1.53;1.43;;;;;;;-0.94;100.00;100004.50;5095534;28;20310;-69
2024/01/11 02:37:35;;;;;;;7.43;1.10;;;;;;;-0.68;100.00;100057.59;5105245;28;20375;-68
2024/01/11 02:40:02;;;;;;;1.03;1.03;;;;;;;-0.79;100.00;100065.34;5103271;28;20043;-68
2024/01/11 02:42:29;;;;;;;1.00;1.00;;;;;;;-0.81;100.00;100050.72;5101914;28;20293;-68
2024/01/11 02:44:54;;;;;;;1.20;1.10;;;;;;;-1.00;100.00;100035.47;5101815;28;20044;-69
2024/01/11 02:47:20;;;;;;;1.20;1.10;;;;;;;-0.88;100.00;100059.91;5102104;28;20044;-68
2024/01/11 02:49:45;;;;;;;1.20;1.10;;;;;;;-1.02;100.00;100090.47;5097957;28;20035;-68
2024/01/11 02:52:11;;;;;;;1.30;1.20;;;;;;;-1.04;100.00;100075.84;5102262;28;20480;-67
2024/01/11 02:54:36;;;;;;;1.00;1.00;;;;;;;-1.21;100.00;100058.69;5096388;28;20040;-67
2024/01/11 02:57:02;;;;;;;1.33;1.13;;;;;;;-1.27;100.00;100080.84;5106086;28;20042;-68
2024/01/11 02:59:28;;;;;;;1.10;1.10;;;;;;;-1.28;100.00;100089.63;5106867;28;20529;-67
2024/01/11 03:01:54;;;;;;;1.30;1.20;;;;;;;-1.36;100.00;100107.59;5106331;28;20036;-66
2024/01/11 03:04:20;;;;;;;1.00;1.00;;;;;;;-1.43;98.31;100106.34;5104067;28;20301;-69
2024/01/11 03:06:45;;;;;;;1.40;1.30;;;;;;;-1.36;99.11;100125.06;5106830;28;20126;-70
2024/01/11 03:09:11;;;;;;;1.30;1.20;;;;;;;-1.82;99.99;100072.41;5105609;28;20365;-67
2024/01/11 03:11:37;;;;;;;1.30;1.20;;;;;;;-1.64;100.00;100124.25;5111834;28;20059;-69
2024/01/11 03:14:03;;;;;;;1.30;1.20;;;;;;;-1.60;100.00;100141.41;5102278;28;20039;-70
2024/01/11 03:16:28;;;;;;;1.07;1.07;;;;;;;-1.93;99.28;100112.25;5099191;28;20262;-70
2024/01/11 03:18:54;;;;;;;4.20;1.33;;;;;;;-1.83;98.43;100146.44;5097625;28;20036;-69
2024/01/11 03:21:19;;;;;;;1.30;1.20;;;;;;;-1.83;96.38;100160.31;5108636;28;20039;-68
2024/01/11 03:23:45;;;;;;;3.47;1.53;;;;;;;-2.14;95.21;100130.13;5099146;28;20040;-69
2024/01/11 03:26:15;;;;;;;1.60;1.50;;;;;;;-1.99;95.74;100177.91;5096846;28;20066;-68
2024/01/11 03:28:41;;;;;;;1.23;1.20;;;;;;;-2.11;95.89;100161.22;5101777;28;20143;-69
2024/01/11 03:31:08;;;;;;;2.50;1.37;;;;;;;-2.17;94.27;100171.22;5104658;28;20511;-70
2024/01/11 03:33:34;;;;;;;1.50;1.30;;;;;;;-2.16;94.33;100217.25;5102007;28;20032;-68
2024/01/11 03:36:00;;;;;;;2.53;1.30;;;;;;;-2.25;95.82;100216.88;5105592;28;20104;-69
2024/01/11 03:38:25;;;;;;;1.50;1.40;;;;;;;-2.49;92.93;100174.06;5102287;27;20068;-68
2024/01/11 03:40:51;;;;;;;1.50;1.40;;;;;;;-2.41;91.13;100195.28;5096607;28;20395;-69
2024/01/11 03:43:18;;;;;;;1.50;1.40;;;;;;;-2.68;91.89;100171.72;5103580;28;20040;-68
2024/01/11 03:45:43;;;;;;;1.70;1.60;;;;;;;-2.64;91.92;100177.59;5104880;28;20384;-68
2024/01/11 03:48:09;;;;;;;1.73;1.50;;;;;;;-2.63;89.64;100221.81;5101381;28;20043;-68
2024/01/11 03:50:34;;;;;;;1.50;1.40;;;;;;;-2.57;89.74;100218.03;5109530;28;20108;-69
2024/01/11 03:53:00;;;;;;;1.60;1.50;;;;;;;-2.61;88.74;100224.31;5104776;27;20055;-69
2024/01/11 03:55:25;;;;;;;1.57;1.47;;;;;;;-2.74;90.25;100244.25;5099986;28;20043;-68
2024/01/11 03:57:52;;;;;;;1.73;1.63;;;;;;;-2.71;90.04;100244.06;5103045;27;20031;-69
2024/01/11 04:00:18;;;;;;;1.50;1.40;;;;;;;-2.82;88.38;100229.91;5111927;28;20035;-68
2024/01/11 04:02:46;;;;;;;2.00;1.80;;;;;;;-3.17;89.54;100224.16;5101339;28;20405;-70
2024/01/11 04:05:15;;;;;;;1.50;1.40;;;;;;;-3.01;89.30;100254.50;5108974;28;20043;-70
2024/01/11 04:07:40;;;;;;;1.50;1.40;;;;;;;-3.12;90.44;100255.97;5099839;28;20181;-68
2024/01/11 04:10:08;;;;;;;1.50;1.40;;;;;;;-3.08;89.35;100303.53;5102825;28;20040;-68
2024/01/11 04:12:34;;;;;;;1.50;1.40;;;;;;;-3.21;90.46;100285.13;5098963;28;20055;-68
2024/01/11 04:14:59;;;;;;;2.77;2.20;;;;;;;-3.29;90.79;100273.47;5098769;28;20036;-68
2024/01/11 04:17:24;;;;;;;2.73;1.60;;;;;;;-3.36;89.67;100282.56;5100211;28;20067;-71
2024/01/11 04:19:50;;;;;;;1.93;1.83;;;;;;;-3.43;89.41;100292.50;5101497;28;20038;-68
2024/01/11 04:22:15;;;;;;;1.60;1.50;;;;;;;-3.50;91.36;100307.59;5104877;28;20130;-69
2024/01/11 04:24:42;;;;;;;1.70;1.60;;;;;;;-3.42;93.25;100304.59;5099468;27;20044;-72
2024/01/11 04:27:08;;;;;;;1.67;1.58;;;;;;;-3.41;91.69;100352.28;5109773;28;20036;-69
2024/01/11 04:29:33;;;;;;;3.83;1.63;;;;;;;-3.56;91.48;100297.53;5102935;28;20499;-70
2024/01/11 04:31:59;;;;;;;1.40;1.30;;;;;;;-3.66;90.99;100305.94;5105161;27;20135;-70
2024/01/11 04:34:24;;;;;;;1.80;1.70;;;;;;;-3.54;89.68;100318.25;5096602;27;20071;-69
2024/01/11 04:36:50;;;;;;;1.57;1.47;;;;;;;-3.59;88.38;100328.94;5106493;28;20092;-69
2024/01/11 04:39:16;;;;;;;1.60;1.50;;;;;;;-3.53;87.58;100348.56;5098779;28;20532;-69
2024/01/11 04:41:41;;;;;;;1.70;1.60;;;;;;;-3.60;85.22;100374.09;5098404;28;20054;-69
2024/01/11 04:44:07;;;;;;;1.80;1.70;;;;;;;-3.72;84.52;100363.50;5109921;28;20411;-68
2024/01/11 04:46:32;;;;;;;1.90;1.80;;;;;;;-3.71;85.81;100354.78;5102868;28;20468;-68
2024/01/11 04:48:58;;;;;;;1.60;1.50;;;;;;;-3.83;85.10;100340.66;5097664;28;20036;-71
2024/01/11 04:51:23;;;;;;;2.10;1.73;;;;;;;-3.68;85.91;100376.28;5099093;28;20126;-69
2024/01/11 04:53:49;;;;;;;1.80;1.70;;;;;;;-3.76;85.90;100373.22;5109364;27;20039;-71
2024/01/11 04:56:16;;;;;;;1.97;1.87;;;;;;;-3.82;85.87;100371.78;5100749;28;20067;-67
2024/01/11 04:58:42;;;;;;;1.70;1.60;;;;;;;-3.60;85.69;100412.28;5102491;28;20047;-70
2024/01/11 05:01:15;;;;;;;2.40;1.70;;;;;;;-3.86;83.02;100414.50;5098601;28;20116;-71
2024/01/11 05:03:46;;;;;;;1.95;1.85;;;;;;;-3.89;83.90;100424.22;5099772;28;20165;-69
2024/01/11 05:06:16;;;;;;;2.00;1.90;;;;;;;-3.99;82.93;100410.03;5097439;28;20142;-67
2024/01/11 05:08:41;;;;;;;2.30;2.17;;;;;;;-4.12;84.87;100408.03;5099678;27;20039;-68
2024/01/11 05:11:07;;;;;;;2.27;2.13;;;;;;;-4.04;85.93;100440.63;5100103;28;20097;-70
2024/01/11 05:13:32;;;;;;;2.20;2.10;;;;;;;-4.25;86.76;100433.00;5100261;28;20127;-69
2024/01/11 05:15:58;;;;;;;2.10;2.00;;;;;;;-4.28;87.62;100422.75;5104916;28;20556;-67
2024/01/11 05:18:23;;;;;;;1.90;1.80;;;;;;;-4.26;89.88;100451.28;5101514;28;20187;-66
2024/01/11 05:20:49;;;;;;;2.43;2.23;;;;;;;-4.40;91.03;100441.53;5100987;28;20039;-67
2024/01/11 05:23:15;;;;;;;3.10;2.70;;;;;;;-4.39;92.31;100443.22;5101737;28;20039;-68
2024/01/11 05:25:40;;;;;;;2.10;1.90;;;;;;;-4.52;92.73;100447.34;5102003;28;20047;-72
2024/01/11 05:28:06;;;;;;;1.97;1.87;;;;;;;-4.71;98.40;100417.06;5090398;28;20055;-69
2024/01/11 05:30:33;;;;;;;2.27;2.07;;;;;;;-4.48;99.16;100464.47;5096911;28;20502;-69
2024/01/11 05:32:58;;;;;;;4.13;2.25;;;;;;;-4.47;100.00;100489.56;5102985;28;20051;-68
2024/01/11 05:35:27;;;;;;;2.37;2.10;;;;;;;-4.48;100.00;100478.31;5082687;28;20088;-68
2024/01/11 05:37:54;;;;;;;2.15;1.95;;;;;;;-4.59;100.00;100496.19;5100776;28;20027;-68
2024/01/11 05:40:20;;;;;;;2.28;2.05;;;;;;;-4.83;100.00;100493.00;5101143;28;20055;-68
2024/01/11 05:42:45;;;;;;;3.20;2.57;;;;;;;-4.85;100.00;100515.59;5101041;28;20410;-68
2024/01/11 05:45:11;;;;;;;3.83;2.40;;;;;;;-5.02;100.00;100487.78;5104987;28;20042;-70
2024/01/11 05:47:37;;;;;;;2.60;2.37;;;;;;;-4.94;100.00;100521.19;5102963;28;20460;-66
2024/01/11 05:50:03;;;;;;;4.60;2.90;;;;;;;-5.18;100.00;100485.97;5104025;28;20081;-67
2024/01/11 05:52:29;;;;;;;3.63;2.42;;;;;;;-5.04;100.00;100525.13;5107220;28;20039;-66
2024/01/11 05:54:55;;;;;;;2.63;2.30;;;;;;;-5.07;100.00;100525.28;5104841;28;20375;-68
2024/01/11 05:57:20;;;;;;;2.70;2.50;;;;;;;-5.06;100.00;100521.75;5104030;28;20486;-66
2024/01/11 05:59:46;;;;;;;2.40;2.20;;;;;;;-5.07;100.00;100515.72;5106767;28;20035;-67
2024/01/11 06:02:13;;;;;;;3.50;2.27;;;;;;;-5.11;100.00;100518.53;5104144;28;20031;-69
2024/01/11 06:04:39;;;;;;;2.85;2.45;;;;;;;-5.19;100.00;100521.50;5104034;28;20084;-67
2024/01/11 06:07:04;;;;;;;3.43;2.50;;;;;;;-5.04;100.00;100546.75;5105206;28;20453;-69
2024/01/11 06:09:30;;;;;;;2.50;2.30;;;;;;;-4.93;100.00;100569.63;5108661;28;20112;-67
2024/01/11 06:11:55;;;;;;;2.27;2.07;;;;;;;-5.18;100.00;100551.72;5099579;28;20062;-69
2024/01/11 06:14:21;;;;;;;5.43;2.10;;;;;;;-5.12;99.16;100590.41;5097332;28;20517;-68
2024/01/11 06:16:46;;;;;;;3.00;2.07;;;;;;;-5.17;94.58;100573.34;5100366;28;20121;-67
2024/01/11 06:19:12;;;;;;;2.60;2.37;;;;;;;-5.34;91.07;100569.72;5101519;28;20447;-65
2024/01/11 06:21:37;;;;;;;5.50;2.80;;;;;;;-5.36;89.79;100602.69;5103893;28;20052;-70
2024/01/11 06:24:03;;;;;;;2.07;1.93;;;;;;;-5.53;89.81;100586.97;5099571;28;20035;-68
2024/01/11 06:26:30;;;;;;;5.13;2.47;;;;;;;-5.51;88.39;100629.28;5099826;28;20039;-67
2024/01/11 06:28:55;;;;;;;2.20;2.00;;;;;;;-5.76;84.00;100602.69;5103184;28;20131;-69
2024/01/11 06:31:21;;;;;;;5.50;3.30;;;;;;;-5.61;82.90;100646.97;5102995;28;20546;-70
2024/01/11 06:33:46;;;;;;;3.33;2.87;;;;;;;-5.71;83.98;100642.25;5106510;28;20035;-68
2024/01/11 06:36:12;;;;;;;5.33;2.77;;;;;;;-5.53;85.36;100651.00;5104636;28;20214;-68
2024/01/11 06:38:38;;;;;;;2.80;2.60;;;;;;;-5.41;86.37;100656.53;5107601;28;20135;-66
2024/01/11 06:41:03;;;;;;;3.73;2.00;;;;;;;-5.65;85.63;100636.81;5104251;27;20130;-66
2024/01/11 06:43:29;;;;;;;3.90;2.10;;;;;;;-5.74;85.49;100643.22;5109116;28;20453;-67
2024/01/11 06:45:54;;;;;;;2.20;1.90;;;;;;;-5.82;86.06;100655.63;5110600;28;20039;-67
2024/01/11 06:48:20;;;;;;;2.40;2.20;;;;;;;-5.68;87.25;100705.22;5107139;28;20050;-68
2024/01/11 06:50:45;;;;;;;2.30;2.10;;;;;;;-5.74;86.29;100686.47;5112239;28;20080;-67
2024/01/11 06:53:11;;;;;;;6.00;2.60;;;;;;;-6.07;87.50;100634.22;5105918;28;20126;-67
2024/01/11 06:55:36;;;;;;;3.60;2.03;;;;;;;-5.65;87.25;100702.50;5106870;27;20030;-67
2024/01/11 06:58:02;;;;;;;4.53;2.17;;;;;;;-5.87;89.00;100664.50;5108774;28;20039;-68
2024/01/11 07:00:28;;;;;;;2.20;2.10;;;;;;;-5.64;89.13;100701.59;5095997;28;20036;-68
2024/01/11 07:02:55;;;;;;;15.83;3.30;;;;;;;-5.67;94.59;100716.44;5110294;28;20055;-67
2024/01/11 07:05:20;;;;;;;2.83;2.42;;;;;;;-5.81;99.43;100693.63;5109979;28;21069;-67
2024/01/11 07:07:46;;;;;;;2.67;2.13;;;;;;;-5.58;99.82;100720.41;5107926;27;20043;-67
2024/01/11 07:10:12;;;;;;;4.78;2.80;;;;;;;-5.59;100.00;100705.75;5108964;28;20035;-66
2024/01/11 07:12:38;;;;;;;7.03;2.70;;;;;;;-5.57;99.71;100696.16;5108089;28;20144;-66
2024/01/11 07:15:04;;;;;;;3.20;2.88;;;;;;;-5.42;100.00;100727.53;5106407;27;20495;-65
2024/01/11 07:17:30;;;;;;;3.00;2.70;;;;;;;-5.47;100.00;100715.66;5106816;28;20517;-68
2024/01/11 07:19:56;;;;;;;4.83;2.80;;;;;;;-5.91;100.00;100660.38;5108152;28;20043;-69
2024/01/11 07:22:21;;;;;;;3.27;2.17;;;;;;;-5.51;100.00;100733.06;5107326;28;20040;-69
2024/01/11 07:24:47;;;;;;;2.67;2.40;;;;;;;-5.58;100.00;100715.22;5105461;28;20039;-70
2024/01/11 07:27:13;;;;;;;3.37;2.70;;;;;;;-5.56;100.00;100749.75;5105980;28;20043;-68
2024/01/11 07:29:38;;;;;;;4.90;3.33;;;;;;;-5.71;100.00;100740.81;5107572;28;20039;-68
2024/01/11 07:32:04;;;;;;;7.87;4.17;;;;;;;-5.72;100.00;100739.13;5113869;27;20130;-68
2024/01/11 07:34:30;;;;;;;2.87;2.53;;;;;;;-5.76;99.18;100740.16;5110301;28;20044;-68
2024/01/11 07:36:56;;;;;;;2.97;2.73;;;;;;;-6.16;100.00;100713.19;5112179;28;20327;-66
2024/01/11 07:39:22;;;;;;;3.67;3.22;;;;;;;-5.79;99.87;100763.59;5112294;28;20034;-67
2024/01/11 07:41:48;;;;;;;4.60;2.70;;;;;;;-5.84;100.00;100765.53;5113964;28;20050;-66
2024/01/11 07:44:14;;;;;;;7.93;3.17;;;;;;;-5.93;100.00;100736.50;5103498;28;20036;-67
2024/01/11 07:46:40;;;;;;;3.17;2.57;;;;;;;-5.83;99.07;100752.50;5107355;28;20241;-68
2024/01/11 07:49:06;;;;;;;5.17;2.70;;;;;;;-5.79;99.07;100755.81;5113651;28;20088;-65
2024/01/11 07:51:33;;;;;;;2.72;2.53;;;;;;;-5.74;98.19;100772.91;5111128;28;20432;-65
2024/01/11 07:53:58;;;;;;;7.25;3.50;;;;;;;-5.81;98.01;100755.03;5108929;28;20098;-66
2024/01/11 07:56:24;;;;;;;5.87;3.13;;;;;;;-5.56;97.74;100792.09;5108866;28;20040;-67
2024/01/11 07:58:50;;;;;;;4.73;2.50;;;;;;;-5.74;97.96;100777.25;5112439;28;20137;-66
2024/01/11 08:01:16;;;;;;;10.43;3.97;;;;;;;-5.91;98.59;100753.75;5114637;28;20103;-69
2024/01/11 08:03:44;;;;;;;3.00;2.70;;;;;;;-5.73;96.22;100794.50;5111431;27;20058;-65
2024/01/11 08:06:10;;;;;;;4.65;2.95;;;;;;;-5.84;97.33;100788.88;5103628;28;20056;-64
2024/01/11 08:08:38;;;;;;;4.32;2.72;;;;;;;-6.02;95.76;100773.16;5109699;28;20044;-66
2024/01/11 08:11:07;;;;;;;2.45;2.25;;;;;;;-5.94;95.85;100786.66;5108215;28;20101;-67
2024/01/11 08:13:34;;;;;;;3.92;3.40;;;;;;;-6.17;95.54;100758.16;5105369;28;20042;-67
2024/01/11 08:16:04;;;;;;;5.25;3.50;;;;;;;-6.09;94.96;100782.03;5105789;28;20047;-67
2024/01/11 08:18:32;;;;;;;6.60;3.25;;;;;;;-7.39;93.84;100606.34;5109330;28;20114;-69
2024/01/11 08:20:58;;;;;;;5.43;3.42;;;;;;;-6.21;94.80;100839.53;5102621;28;20043;-69
2024/01/11 08:23:24;;;;;;;3.97;2.90;;;;;;;-6.48;94.40;100814.59;5102395;28;20047;-68
2024/01/11 08:25:49;;;;;;;5.23;3.53;;;;;;;-6.44;93.95;100831.72;5106516;28;20035;-67
2024/01/11 08:28:15;;;;;;;4.13;3.13;;;;;;;-6.34;93.63;100833.09;5107182;28;20117;-66
2024/01/11 08:30:42;;;;;;;4.03;3.30;;;;;;;-6.18;94.16;100836.81;5108089;28;20072;-67
2024/01/11 08:33:08;;;;;;;3.35;2.85;;;;;;;-6.21;91.73;100836.94;5109040;27;20092;-68
2024/01/11 08:35:33;;;;;;;5.57;2.93;;;;;;;-6.18;92.14;100834.22;5106043;28;20043;-65
2024/01/11 08:37:59;;;;;;;4.13;3.33;;;;;;;-6.15;91.95;100823.75;5105748;28;20031;-67
2024/01/11 08:40:25;;;;;;;2.83;2.50;;;;;;;-6.02;90.59;100835.38;5107601;28;20409;-69
2024/01/11 08:42:50;;;;;;;6.30;4.57;;;;;;;-6.32;89.83;100814.00;5105621;28;20051;-67
2024/01/11 08:45:17;;;;;;;3.23;2.93;;;;;;;-6.09;89.63;100857.22;5107794;28;20043;-66
2024/01/11 08:47:47;;;;;;;6.80;2.72;;;;;;;-6.08;89.10;100850.28;5104977;28;20032;-66
2024/01/11 08:50:15;;;;;;;2.75;2.55;;;;;;;-6.16;88.58;100847.13;5109111;28;20044;-70
2024/01/11 08:52:42;;;;;;;4.03;2.58;;;;;;;-6.27;89.27;100855.31;5085630;27;20067;-67
2024/01/11 08:55:08;;;;;;;2.60;2.38;;;;;;;-6.35;89.32;100841.78;5103760;28;20046;-69
2024/01/11 08:57:35;;;;;;;2.90;2.70;;;;;;;-6.33;88.69;100853.78;5108684;28;20035;-69
2024/01/11 09:00:06;;;;;;;3.92;2.58;;;;;;;-6.51;89.15;100841.44;5109406;28;20044;-67
2024/01/11 09:02:34;;;;;;;3.25;2.90;;;;;;;-6.40;88.00;100854.88;5105430;28;20087;-67
2024/01/11 09:04:59;;;;;;;2.97;2.70;;;;;;;-6.54;88.93;100866.63;5102237;28;20047;-67
2024/01/11 09:07:25;;;;;;;3.20;2.90;;;;;;;-6.69;89.08;100829.97;5108703;28;20088;-66
2024/01/11 09:09:50;;;;;;;3.47;2.83;;;;;;;-6.57;87.64;100870.16;5108253;28;20127;-68
2024/01/11 09:12:16;;;;;;;4.80;2.97;;;;;;;-6.61;89.13;100872.00;5098966;28;20138;-70
2024/01/11 09:14:42;;;;;;;3.87;2.93;;;;;;;-6.73;88.20;100851.69;5100773;27;20043;-68
2024/01/11 09:17:19;;;;;;;3.53;2.92;;;;;;;-6.51;87.54;100879.47;5067231;28;20412;-69
2024/01/11 09:19:45;;;;;;;3.50;2.35;;;;;;;-6.60;87.72;100884.06;5067365;28;20135;-68
2024/01/11 09:22:10;;;;;;;3.70;2.90;;;;;;;-6.52;87.90;100888.13;5064544;28;20235;-68
2024/01/11 09:24:36;;;;;;;4.30;2.70;;;;;;;-6.46;87.46;100893.09;5059980;28;20547;-68
2024/01/11 09:27:04;;;;;;;3.03;2.83;;;;;;;-6.51;86.36;100902.78;5060266;28;20070;-68
2024/01/11 09:29:29;;;;;;;2.45;2.25;;;;;;;-6.85;85.73;100867.63;5056702;28;20037;-69
2024/01/11 09:31:55;;;;;;;2.50;2.30;;;;;;;-6.75;87.67;100894.91;5062194;28;20051;-68
2024/01/11 09:34:20;;;;;;;3.07;2.70;;;;;;;-6.66;86.59;100886.84;5064452;28;20033;-67
2024/01/11 09:36:46;;;;;;;3.60;3.00;;;;;;;-6.66;86.64;100907.56;5058748;28;20505;-69
2024/01/11 09:39:13;;;;;;;5.50;3.10;;;;;;;-6.90;87.72;100865.19;5057319;28;20079;-68
2024/01/11 09:41:43;;;;;;;3.35;3.05;;;;;;;-6.66;86.29;100917.06;5057944;28;20143;-67
2024/01/11 09:44:09;;;;;;;2.85;2.55;;;;;;;-6.58;86.25;100938.41;5058154;28;20041;-69
2024/01/11 09:46:35;;;;;;;3.37;2.97;;;;;;;-6.60;86.75;100946.25;5063575;28;20051;-69
2024/01/11 09:49:03;;;;;;;2.60;2.40;;;;;;;-6.60;86.31;100951.41;5061964;28;20040;-66
2024/01/11 09:51:29;;;;;;;6.78;4.20;;;;;;;-6.67;86.88;100965.44;5059656;28;20041;-68
2024/01/11 09:53:58;;;;;;;4.30;2.90;;;;;;;-6.61;86.13;100939.38;5063825;28;20086;-70
2024/01/11 09:56:25;;;;;;;5.18;3.17;;;;;;;-6.48;86.30;100959.69;5061257;28;20041;-70
2024/01/11 09:58:51;;;;;;;4.07;2.35;;;;;;;-6.54;86.58;100933.97;5055304;28;20079;-69
2024/01/11 10:01:17;;;;;;;4.33;2.50;;;;;;;-6.47;86.98;100954.44;5058574;28;20085;-68
2024/01/11 10:03:46;;;;;;;2.70;2.50;;;;;;;-6.70;85.93;100939.63;5053561;28;20128;-67
2024/01/11 10:06:12;;;;;;;3.85;3.45;;;;;;;-6.57;86.68;100969.44;5057094;28;20045;-68
2024/01/11 10:08:38;;;;;;;3.72;2.72;;;;;;;-6.33;86.07;100978.19;5057461;28;20102;-68
2024/01/11 10:11:03;;;;;;;2.90;2.70;;;;;;;-6.30;86.44;100980.66;5056480;28;20037;-69
2024/01/11 10:13:30;;;;;;;3.10;2.73;;;;;;;-6.50;86.34;100975.28;5051600;28;20449;-68
2024/01/11 10:16:13;;;;;;;3.08;2.88;;;;;;;-6.57;87.04;100966.00;5055224;28;20091;-68
2024/01/11 10:18:39;;;;;;;3.90;3.60;;;;;;;-6.51;87.13;100985.69;5055153;28;20084;-70
2024/01/11 10:21:05;;;;;;;4.85;3.53;;;;;;;-6.66;88.10;101002.56;5052739;28;20049;-67
2024/01/11 10:23:34;;;;;;;4.28;2.95;;;;;;;-6.67;89.33;101012.06;5058787;28;20071;-68
2024/01/11 10:26:00;;;;;;;3.25;2.95;;;;;;;-6.98;90.25;100956.94;5054294;28;20049;-68
2024/01/11 10:28:26;;;;;;;5.30;2.70;;;;;;;-6.59;90.97;101020.47;5044628;28;20033;-67
2024/01/11 10:30:55;;;;;;;3.28;2.60;;;;;;;-6.71;91.23;101031.19;5050335;28;20128;-70
2024/01/11 10:33:22;;;;;;;6.60;3.67;;;;;;;-6.67;93.51;101027.59;5040725;28;20481;-65
2024/01/11 10:35:51;;;;;;;6.07;3.95;;;;;;;-6.71;95.09;101015.66;5048051;28;20041;-68
2024/01/11 10:38:17;;;;;;;3.83;3.30;;;;;;;-6.81;98.22;101011.66;5026616;28;20123;-67
2024/01/11 10:40:44;;;;;;;4.38;3.30;;;;;;;-6.69;99.84;101037.16;5040669;28;20046;-68
2024/01/11 10:43:11;;;;;;;4.75;4.28;;;;;;;-6.78;100.00;101037.47;5039912;28;20041;-68
2024/01/11 10:45:38;;;;;;;12.20;3.10;;;;;;;-7.00;100.00;101033.81;5046184;28;20044;-68
2024/01/11 10:48:15;;;;;;;4.68;4.00;;;;;;;-7.06;100.00;101052.09;5038026;28;20528;-67
2024/01/11 10:50:45;;;;;;;8.07;3.88;;;;;;;-7.11;100.00;101041.03;5046242;28;20393;-70
2024/01/11 10:53:17;;;;;;;4.30;3.38;;;;;;;-7.15;100.00;101042.88;5047776;28;20064;-67
2024/01/11 10:55:44;;;;;;;6.55;3.17;;;;;;;-7.03;100.00;101055.44;5038795;28;20045;-66
2024/01/11 10:58:11;;;;;;;4.65;3.47;;;;;;;-7.16;100.00;101017.03;5043387;28;20056;-67
2024/01/11 11:00:37;;;;;;;3.85;3.42;;;;;;;-6.97;100.00;101051.84;5040268;28;20480;-70
2024/01/11 11:03:06;;;;;;;6.13;3.67;;;;;;;-6.94;100.00;101075.03;5038899;28;20087;-67
2024/01/11 11:05:35;;;;;;;5.33;2.90;;;;;;;-7.20;100.00;101043.00;5040551;28;20041;-67
2024/01/11 11:08:01;;;;;;;5.88;3.88;;;;;;;-7.23;100.00;101032.75;5041916;28;20287;-70
2024/01/11 11:10:29;;;;;;;3.85;3.08;;;;;;;-6.88;100.00;101087.84;5042543;28;20072;-69
2024/01/11 11:12:59;;;;;;;6.00;3.58;;;;;;;-6.87;100.00;101081.75;5038320;28;20041;-69
2024/01/11 11:15:27;;;;;;;7.55;4.03;;;;;;;-6.87;100.00;101087.78;5044990;28;20489;-67
2024/01/11 11:17:54;;;;;;;6.22;3.10;;;;;;;-6.94;100.00;101073.34;5034264;28;20048;-69
2024/01/11 11:20:19;;;;;;;4.20;3.67;;;;;;;-6.93;100.00;101095.75;5048430;28;20041;-69